sensor_id;sensor_type;location;lat;lon;timestamp;P1;durP1;ratioP1;P2;durP2;ratioP2
21681;SDS011;11002;48.256;10.084;2023-03-17T00:00:55;11.15;;;6.68;;
21681;SDS011;11002;48.256;10.084;2023-03-17T00:03:23;13.68;;;7.88;;
21681;SDS011;11002;48.256;10.084;2023-03-17T00:05:54;11.05;;;7.38;;
21681;SDS011;11002;48.256;10.084;2023-03-17T00:08:24;11.15;;;7.38;;
21681;SDS011;11002;48.256;10.084;2023-03-17T00:10:54;12.07;;;7.50;;
21681;SDS011;11002;48.256;10.084;2023-03-17T00:13:21;10.95;;;7.80;;
21681;SDS011;11002;48.256;10.084;2023-03-17T00:15:51;11.85;;;7.72;;
21681;SDS011;11002;48.256;10.084;2023-03-17T00:18:21;9.85;;;7.22;;
21681;SDS011;11002;48.256;10.084;2023-03-17T00:20:50;11.98;;;6.95;;
21681;SDS011;11002;48.256;10.084;2023-03-17T00:23:18;10.02;;;7.22;;
21681;SDS011;11002;48.256;10.084;2023-03-17T00:25:47;13.85;;;7.88;;
21681;SDS011;11002;48.256;10.084;2023-03-17T00:28:16;13.18;;;7.68;;
21681;SDS011;11002;48.256;10.084;2023-03-17T00:30:46;10.77;;;7.35;;
21681;SDS011;11002;48.256;10.084;2023-03-17T00:33:16;10.88;;;7.47;;
21681;SDS011;11002;48.256;10.084;2023-03-17T00:35:49;12.25;;;7.53;;
21681;SDS011;11002;48.256;10.084;2023-03-17T00:38:18;10.40;;;7.20;;
21681;SDS011;11002;48.256;10.084;2023-03-17T00:40:46;9.85;;;7.00;;
21681;SDS011;11002;48.256;10.084;2023-03-17T00:43:15;11.18;;;7.78;;
21681;SDS011;11002;48.256;10.084;2023-03-17T00:45:43;8.93;;;6.45;;
21681;SDS011;11002;48.256;10.084;2023-03-17T00:48:12;10.93;;;7.07;;
21681;SDS011;11002;48.256;10.084;2023-03-17T00:50:43;11.07;;;7.03;;
21681;SDS011;11002;48.256;10.084;2023-03-17T00:53:12;15.35;;;6.95;;
21681;SDS011;11002;48.256;10.084;2023-03-17T00:55:41;9.25;;;7.28;;
21681;SDS011;11002;48.256;10.084;2023-03-17T00:58:11;11.27;;;7.72;;
21681;SDS011;11002;48.256;10.084;2023-03-17T01:00:40;12.65;;;8.13;;
21681;SDS011;11002;48.256;10.084;2023-03-17T01:03:09;9.68;;;6.80;;
21681;SDS011;11002;48.256;10.084;2023-03-17T01:05:39;11.43;;;7.07;;
21681;SDS011;11002;48.256;10.084;2023-03-17T01:08:09;8.07;;;6.57;;
21681;SDS011;11002;48.256;10.084;2023-03-17T01:10:39;9.52;;;7.18;;
21681;SDS011;11002;48.256;10.084;2023-03-17T01:13:10;10.07;;;6.70;;
21681;SDS011;11002;48.256;10.084;2023-03-17T01:15:40;9.85;;;7.20;;
21681;SDS011;11002;48.256;10.084;2023-03-17T01:18:10;13.80;;;8.00;;
21681;SDS011;11002;48.256;10.084;2023-03-17T01:20:39;10.43;;;7.30;;
21681;SDS011;11002;48.256;10.084;2023-03-17T01:23:08;9.55;;;6.75;;
21681;SDS011;11002;48.256;10.084;2023-03-17T01:25:37;14.90;;;7.32;;
21681;SDS011;11002;48.256;10.084;2023-03-17T01:28:05;13.27;;;6.53;;
21681;SDS011;11002;48.256;10.084;2023-03-17T01:30:33;11.23;;;7.13;;
21681;SDS011;11002;48.256;10.084;2023-03-17T01:33:03;13.25;;;7.63;;
21681;SDS011;11002;48.256;10.084;2023-03-17T01:35:33;11.55;;;7.95;;
21681;SDS011;11002;48.256;10.084;2023-03-17T01:38:02;12.07;;;7.43;;
21681;SDS011;11002;48.256;10.084;2023-03-17T01:40:32;10.90;;;7.78;;
21681;SDS011;11002;48.256;10.084;2023-03-17T01:43:03;12.32;;;7.15;;
21681;SDS011;11002;48.256;10.084;2023-03-17T01:48:54;14.15;;;7.45;;
21681;SDS011;11002;48.256;10.084;2023-03-17T01:51:29;11.77;;;7.20;;
21681;SDS011;11002;48.256;10.084;2023-03-17T01:54:02;10.75;;;6.55;;
21681;SDS011;11002;48.256;10.084;2023-03-17T01:56:36;12.88;;;6.88;;
21681;SDS011;11002;48.256;10.084;2023-03-17T01:59:06;9.75;;;6.90;;
21681;SDS011;11002;48.256;10.084;2023-03-17T02:01:40;10.10;;;7.78;;
21681;SDS011;11002;48.256;10.084;2023-03-17T02:04:10;9.88;;;7.15;;
21681;SDS011;11002;48.256;10.084;2023-03-17T02:06:38;11.45;;;7.57;;
21681;SDS011;11002;48.256;10.084;2023-03-17T02:09:09;10.55;;;7.68;;
21681;SDS011;11002;48.256;10.084;2023-03-17T02:11:38;12.77;;;7.63;;
21681;SDS011;11002;48.256;10.084;2023-03-17T02:14:06;10.95;;;7.55;;
21681;SDS011;11002;48.256;10.084;2023-03-17T02:16:33;12.18;;;7.65;;
21681;SDS011;11002;48.256;10.084;2023-03-17T02:19:01;13.93;;;8.00;;
21681;SDS011;11002;48.256;10.084;2023-03-17T02:21:32;13.90;;;8.52;;
21681;SDS011;11002;48.256;10.084;2023-03-17T02:24:08;12.57;;;7.65;;
21681;SDS011;11002;48.256;10.084;2023-03-17T02:26:40;12.23;;;8.50;;
21681;SDS011;11002;48.256;10.084;2023-03-17T02:29:09;12.15;;;7.95;;
21681;SDS011;11002;48.256;10.084;2023-03-17T02:31:39;12.02;;;7.65;;
21681;SDS011;11002;48.256;10.084;2023-03-17T02:34:07;10.95;;;8.18;;
21681;SDS011;11002;48.256;10.084;2023-03-17T02:36:36;12.48;;;8.40;;
21681;SDS011;11002;48.256;10.084;2023-03-17T02:39:03;12.73;;;7.70;;
21681;SDS011;11002;48.256;10.084;2023-03-17T02:41:31;16.17;;;9.02;;
21681;SDS011;11002;48.256;10.084;2023-03-17T02:43:59;13.77;;;8.45;;
21681;SDS011;11002;48.256;10.084;2023-03-17T02:46:27;13.48;;;8.05;;
21681;SDS011;11002;48.256;10.084;2023-03-17T02:48:57;11.38;;;8.05;;
21681;SDS011;11002;48.256;10.084;2023-03-17T02:51:26;11.43;;;8.25;;
21681;SDS011;11002;48.256;10.084;2023-03-17T02:53:55;12.20;;;8.68;;
21681;SDS011;11002;48.256;10.084;2023-03-17T02:56:22;14.43;;;7.93;;
21681;SDS011;11002;48.256;10.084;2023-03-17T02:58:50;16.20;;;7.85;;
21681;SDS011;11002;48.256;10.084;2023-03-17T03:01:17;11.48;;;7.68;;
21681;SDS011;11002;48.256;10.084;2023-03-17T03:03:45;11.77;;;8.00;;
21681;SDS011;11002;48.256;10.084;2023-03-17T03:06:13;12.02;;;7.45;;
21681;SDS011;11002;48.256;10.084;2023-03-17T03:08:41;12.05;;;8.25;;
21681;SDS011;11002;48.256;10.084;2023-03-17T03:11:10;10.48;;;7.57;;
21681;SDS011;11002;48.256;10.084;2023-03-17T03:13:37;12.10;;;8.13;;
21681;SDS011;11002;48.256;10.084;2023-03-17T03:16:05;13.50;;;8.50;;
21681;SDS011;11002;48.256;10.084;2023-03-17T03:18:35;15.10;;;8.13;;
21681;SDS011;11002;48.256;10.084;2023-03-17T03:21:03;14.82;;;8.23;;
21681;SDS011;11002;48.256;10.084;2023-03-17T03:23:30;12.07;;;8.25;;
21681;SDS011;11002;48.256;10.084;2023-03-17T03:25:58;11.40;;;7.10;;
21681;SDS011;11002;48.256;10.084;2023-03-17T03:28:27;10.23;;;6.95;;
21681;SDS011;11002;48.256;10.084;2023-03-17T03:30:55;10.40;;;7.35;;
21681;SDS011;11002;48.256;10.084;2023-03-17T03:33:22;11.35;;;7.53;;
21681;SDS011;11002;48.256;10.084;2023-03-17T03:35:49;12.02;;;7.57;;
21681;SDS011;11002;48.256;10.084;2023-03-17T03:38:17;11.25;;;8.07;;
21681;SDS011;11002;48.256;10.084;2023-03-17T03:40:44;10.75;;;7.63;;
21681;SDS011;11002;48.256;10.084;2023-03-17T03:43:12;11.45;;;7.80;;
21681;SDS011;11002;48.256;10.084;2023-03-17T03:45:41;13.30;;;8.02;;
21681;SDS011;11002;48.256;10.084;2023-03-17T03:48:08;16.13;;;8.25;;
21681;SDS011;11002;48.256;10.084;2023-03-17T03:50:36;10.35;;;7.60;;
21681;SDS011;11002;48.256;10.084;2023-03-17T03:53:04;14.57;;;8.52;;
21681;SDS011;11002;48.256;10.084;2023-03-17T03:55:31;13.07;;;7.60;;
21681;SDS011;11002;48.256;10.084;2023-03-17T03:57:59;10.00;;;8.05;;
21681;SDS011;11002;48.256;10.084;2023-03-17T04:00:26;13.80;;;7.97;;
21681;SDS011;11002;48.256;10.084;2023-03-17T04:02:55;10.35;;;7.70;;
21681;SDS011;11002;48.256;10.084;2023-03-17T04:05:22;11.02;;;7.60;;
21681;SDS011;11002;48.256;10.084;2023-03-17T04:07:49;11.88;;;8.50;;
21681;SDS011;11002;48.256;10.084;2023-03-17T04:10:17;11.60;;;8.40;;
21681;SDS011;11002;48.256;10.084;2023-03-17T04:12:44;10.55;;;8.00;;
21681;SDS011;11002;48.256;10.084;2023-03-17T04:15:12;9.77;;;7.63;;
21681;SDS011;11002;48.256;10.084;2023-03-17T04:17:41;10.80;;;7.57;;
21681;SDS011;11002;48.256;10.084;2023-03-17T04:20:10;11.70;;;7.15;;
21681;SDS011;11002;48.256;10.084;2023-03-17T04:22:39;13.10;;;8.60;;
21681;SDS011;11002;48.256;10.084;2023-03-17T04:25:08;12.18;;;8.13;;
21681;SDS011;11002;48.256;10.084;2023-03-17T04:27:36;14.00;;;8.30;;
21681;SDS011;11002;48.256;10.084;2023-03-17T04:30:03;13.02;;;8.20;;
21681;SDS011;11002;48.256;10.084;2023-03-17T04:32:31;10.02;;;7.60;;
21681;SDS011;11002;48.256;10.084;2023-03-17T04:34:59;11.50;;;8.48;;
21681;SDS011;11002;48.256;10.084;2023-03-17T04:37:28;10.85;;;8.02;;
21681;SDS011;11002;48.256;10.084;2023-03-17T04:39:55;11.77;;;8.20;;
21681;SDS011;11002;48.256;10.084;2023-03-17T04:42:22;12.40;;;7.95;;
21681;SDS011;11002;48.256;10.084;2023-03-17T04:44:50;10.32;;;7.70;;
21681;SDS011;11002;48.256;10.084;2023-03-17T04:47:17;12.25;;;7.90;;
21681;SDS011;11002;48.256;10.084;2023-03-17T04:49:45;11.02;;;7.78;;
21681;SDS011;11002;48.256;10.084;2023-03-17T04:52:12;11.52;;;7.60;;
21681;SDS011;11002;48.256;10.084;2023-03-17T04:54:41;10.90;;;7.45;;
21681;SDS011;11002;48.256;10.084;2023-03-17T04:57:09;11.32;;;7.60;;
21681;SDS011;11002;48.256;10.084;2023-03-17T04:59:36;11.35;;;7.72;;
21681;SDS011;11002;48.256;10.084;2023-03-17T05:02:04;9.30;;;7.28;;
21681;SDS011;11002;48.256;10.084;2023-03-17T05:04:32;10.70;;;7.45;;
21681;SDS011;11002;48.256;10.084;2023-03-17T05:06:59;12.52;;;7.55;;
21681;SDS011;11002;48.256;10.084;2023-03-17T05:09:27;10.68;;;7.65;;
21681;SDS011;11002;48.256;10.084;2023-03-17T05:11:56;10.75;;;7.75;;
21681;SDS011;11002;48.256;10.084;2023-03-17T05:14:23;9.43;;;7.40;;
21681;SDS011;11002;48.256;10.084;2023-03-17T05:16:51;9.68;;;7.90;;
21681;SDS011;11002;48.256;10.084;2023-03-17T05:19:18;15.65;;;9.93;;
21681;SDS011;11002;48.256;10.084;2023-03-17T05:21:45;20.65;;;11.95;;
21681;SDS011;11002;48.256;10.084;2023-03-17T05:24:13;17.05;;;9.75;;
21681;SDS011;11002;48.256;10.084;2023-03-17T05:26:40;13.15;;;8.48;;
21681;SDS011;11002;48.256;10.084;2023-03-17T05:29:10;11.70;;;8.18;;
21681;SDS011;11002;48.256;10.084;2023-03-17T05:31:37;12.80;;;8.57;;
21681;SDS011;11002;48.256;10.084;2023-03-17T05:34:05;15.25;;;8.25;;
21681;SDS011;11002;48.256;10.084;2023-03-17T05:36:32;12.80;;;8.60;;
21681;SDS011;11002;48.256;10.084;2023-03-17T05:39:01;11.15;;;8.23;;
21681;SDS011;11002;48.256;10.084;2023-03-17T05:41:29;13.85;;;8.40;;
21681;SDS011;11002;48.256;10.084;2023-03-17T05:43:58;11.02;;;7.97;;
21681;SDS011;11002;48.256;10.084;2023-03-17T05:46:27;10.43;;;7.55;;
21681;SDS011;11002;48.256;10.084;2023-03-17T05:48:55;10.88;;;8.15;;
21681;SDS011;11002;48.256;10.084;2023-03-17T05:51:22;10.93;;;7.63;;
21681;SDS011;11002;48.256;10.084;2023-03-17T05:53:49;13.50;;;8.48;;
21681;SDS011;11002;48.256;10.084;2023-03-17T05:56:17;11.20;;;7.75;;
21681;SDS011;11002;48.256;10.084;2023-03-17T05:58:44;12.70;;;8.10;;
21681;SDS011;11002;48.256;10.084;2023-03-17T06:01:11;10.38;;;7.75;;
21681;SDS011;11002;48.256;10.084;2023-03-17T06:03:41;12.02;;;8.40;;
21681;SDS011;11002;48.256;10.084;2023-03-17T06:06:08;13.05;;;7.47;;
21681;SDS011;11002;48.256;10.084;2023-03-17T06:08:36;13.18;;;8.60;;
21681;SDS011;11002;48.256;10.084;2023-03-17T06:11:04;13.13;;;8.85;;
21681;SDS011;11002;48.256;10.084;2023-03-17T06:13:31;14.98;;;9.70;;
21681;SDS011;11002;48.256;10.084;2023-03-17T06:15:59;16.00;;;9.50;;
21681;SDS011;11002;48.256;10.084;2023-03-17T06:18:26;13.32;;;9.88;;
21681;SDS011;11002;48.256;10.084;2023-03-17T06:20:56;16.92;;;10.80;;
21681;SDS011;11002;48.256;10.084;2023-03-17T06:23:26;15.07;;;9.90;;
21681;SDS011;11002;48.256;10.084;2023-03-17T06:25:54;15.20;;;10.10;;
21681;SDS011;11002;48.256;10.084;2023-03-17T06:28:23;16.90;;;10.13;;
21681;SDS011;11002;48.256;10.084;2023-03-17T06:30:51;13.88;;;8.98;;
21681;SDS011;11002;48.256;10.084;2023-03-17T06:33:18;13.13;;;9.45;;
21681;SDS011;11002;48.256;10.084;2023-03-17T06:35:46;15.82;;;10.73;;
21681;SDS011;11002;48.256;10.084;2023-03-17T06:38:15;16.13;;;10.00;;
21681;SDS011;11002;48.256;10.084;2023-03-17T06:40:43;15.63;;;11.02;;
21681;SDS011;11002;48.256;10.084;2023-03-17T06:43:12;15.35;;;10.68;;
21681;SDS011;11002;48.256;10.084;2023-03-17T06:45:39;19.30;;;10.70;;
21681;SDS011;11002;48.256;10.084;2023-03-17T06:48:06;15.98;;;10.73;;
21681;SDS011;11002;48.256;10.084;2023-03-17T06:50:34;15.10;;;10.35;;
21681;SDS011;11002;48.256;10.084;2023-03-17T06:53:01;17.80;;;10.88;;
21681;SDS011;11002;48.256;10.084;2023-03-17T06:55:30;15.30;;;10.52;;
21681;SDS011;11002;48.256;10.084;2023-03-17T06:57:58;13.88;;;9.57;;
21681;SDS011;11002;48.256;10.084;2023-03-17T07:00:27;13.55;;;9.90;;
21681;SDS011;11002;48.256;10.084;2023-03-17T07:02:54;11.57;;;8.07;;
21681;SDS011;11002;48.256;10.084;2023-03-17T07:05:22;12.50;;;8.27;;
21681;SDS011;11002;48.256;10.084;2023-03-17T07:07:49;10.73;;;7.47;;
21681;SDS011;11002;48.256;10.084;2023-03-17T07:10:17;10.27;;;7.50;;
21681;SDS011;11002;48.256;10.084;2023-03-17T07:12:46;12.18;;;7.07;;
21681;SDS011;11002;48.256;10.084;2023-03-17T07:15:13;9.65;;;7.30;;
21681;SDS011;11002;48.256;10.084;2023-03-17T07:17:41;13.23;;;7.85;;
21681;SDS011;11002;48.256;10.084;2023-03-17T07:20:11;10.68;;;8.10;;
21681;SDS011;11002;48.256;10.084;2023-03-17T07:22:39;9.93;;;7.72;;
21681;SDS011;11002;48.256;10.084;2023-03-17T07:25:07;12.63;;;8.90;;
21681;SDS011;11002;48.256;10.084;2023-03-17T07:27:35;11.85;;;8.68;;
21681;SDS011;11002;48.256;10.084;2023-03-17T07:30:05;10.15;;;7.95;;
21681;SDS011;11002;48.256;10.084;2023-03-17T07:32:33;10.60;;;7.93;;
21681;SDS011;11002;48.256;10.084;2023-03-17T07:35:00;13.25;;;8.35;;
21681;SDS011;11002;48.256;10.084;2023-03-17T07:37:29;15.50;;;7.88;;
21681;SDS011;11002;48.256;10.084;2023-03-17T07:39:56;11.07;;;7.53;;
21681;SDS011;11002;48.256;10.084;2023-03-17T07:42:24;9.00;;;7.68;;
21681;SDS011;11002;48.256;10.084;2023-03-17T07:44:53;10.68;;;7.22;;
21681;SDS011;11002;48.256;10.084;2023-03-17T07:47:22;9.75;;;7.47;;
21681;SDS011;11002;48.256;10.084;2023-03-17T07:49:50;10.57;;;7.00;;
21681;SDS011;11002;48.256;10.084;2023-03-17T07:52:17;9.65;;;6.80;;
21681;SDS011;11002;48.256;10.084;2023-03-17T07:54:45;9.73;;;7.50;;
21681;SDS011;11002;48.256;10.084;2023-03-17T07:57:12;10.60;;;7.30;;
21681;SDS011;11002;48.256;10.084;2023-03-17T07:59:41;12.35;;;7.10;;
21681;SDS011;11002;48.256;10.084;2023-03-17T08:02:10;10.48;;;6.82;;
21681;SDS011;11002;48.256;10.084;2023-03-17T08:04:42;7.97;;;6.78;;
21681;SDS011;11002;48.256;10.084;2023-03-17T08:07:10;9.70;;;6.85;;
21681;SDS011;11002;48.256;10.084;2023-03-17T08:09:39;9.50;;;7.03;;
21681;SDS011;11002;48.256;10.084;2023-03-17T08:12:06;9.95;;;7.03;;
21681;SDS011;11002;48.256;10.084;2023-03-17T08:14:34;8.52;;;6.75;;
21681;SDS011;11002;48.256;10.084;2023-03-17T08:17:02;7.80;;;6.10;;
21681;SDS011;11002;48.256;10.084;2023-03-17T08:19:29;14.25;;;6.90;;
21681;SDS011;11002;48.256;10.084;2023-03-17T08:21:58;9.68;;;6.40;;
21681;SDS011;11002;48.256;10.084;2023-03-17T08:24:26;8.60;;;6.70;;
21681;SDS011;11002;48.256;10.084;2023-03-17T08:26:53;11.63;;;6.85;;
21681;SDS011;11002;48.256;10.084;2023-03-17T08:29:21;11.13;;;6.78;;
21681;SDS011;11002;48.256;10.084;2023-03-17T08:31:48;11.68;;;6.88;;
21681;SDS011;11002;48.256;10.084;2023-03-17T08:34:16;9.85;;;6.88;;
21681;SDS011;11002;48.256;10.084;2023-03-17T08:36:43;9.05;;;6.80;;
21681;SDS011;11002;48.256;10.084;2023-03-17T08:39:12;9.73;;;7.25;;
21681;SDS011;11002;48.256;10.084;2023-03-17T08:41:39;9.25;;;6.50;;
21681;SDS011;11002;48.256;10.084;2023-03-17T08:44:07;8.20;;;7.00;;
21681;SDS011;11002;48.256;10.084;2023-03-17T08:46:34;11.07;;;7.03;;
21681;SDS011;11002;48.256;10.084;2023-03-17T08:49:02;7.90;;;6.47;;
21681;SDS011;11002;48.256;10.084;2023-03-17T08:51:30;7.60;;;6.38;;
21681;SDS011;11002;48.256;10.084;2023-03-17T08:53:59;8.20;;;6.80;;
21681;SDS011;11002;48.256;10.084;2023-03-17T08:56:28;9.55;;;7.05;;
21681;SDS011;11002;48.256;10.084;2023-03-17T08:58:56;12.40;;;7.18;;
21681;SDS011;11002;48.256;10.084;2023-03-17T09:01:23;7.15;;;6.45;;
21681;SDS011;11002;48.256;10.084;2023-03-17T09:03:52;9.73;;;6.38;;
21681;SDS011;11002;48.256;10.084;2023-03-17T09:06:21;9.63;;;6.78;;
21681;SDS011;11002;48.256;10.084;2023-03-17T09:08:48;8.45;;;7.50;;
21681;SDS011;11002;48.256;10.084;2023-03-17T09:11:21;8.15;;;6.68;;
21681;SDS011;11002;48.256;10.084;2023-03-17T09:13:52;8.65;;;6.82;;
21681;SDS011;11002;48.256;10.084;2023-03-17T09:16:20;7.20;;;6.35;;
21681;SDS011;11002;48.256;10.084;2023-03-17T09:18:48;8.95;;;6.55;;
21681;SDS011;11002;48.256;10.084;2023-03-17T09:21:15;7.15;;;6.45;;
21681;SDS011;11002;48.256;10.084;2023-03-17T09:23:43;12.15;;;6.55;;
21681;SDS011;11002;48.256;10.084;2023-03-17T09:26:11;6.97;;;6.18;;
21681;SDS011;11002;48.256;10.084;2023-03-17T09:28:38;10.18;;;6.05;;
21681;SDS011;11002;48.256;10.084;2023-03-17T09:31:07;8.35;;;6.82;;
21681;SDS011;11002;48.256;10.084;2023-03-17T09:33:38;7.38;;;6.45;;
21681;SDS011;11002;48.256;10.084;2023-03-17T09:36:06;8.90;;;6.45;;
21681;SDS011;11002;48.256;10.084;2023-03-17T09:38:34;8.05;;;6.38;;
21681;SDS011;11002;48.256;10.084;2023-03-17T09:41:04;13.10;;;5.47;;
21681;SDS011;11002;48.256;10.084;2023-03-17T09:43:46;8.23;;;6.00;;
21681;SDS011;11002;48.256;10.084;2023-03-17T09:46:24;6.38;;;5.50;;
21681;SDS011;11002;48.256;10.084;2023-03-17T09:49:01;7.30;;;5.60;;
21681;SDS011;11002;48.256;10.084;2023-03-17T09:51:33;7.20;;;5.65;;
21681;SDS011;11002;48.256;10.084;2023-03-17T09:54:01;6.65;;;5.40;;
21681;SDS011;11002;48.256;10.084;2023-03-17T09:56:30;6.97;;;5.60;;
21681;SDS011;11002;48.256;10.084;2023-03-17T09:59:01;6.00;;;5.00;;
21681;SDS011;11002;48.256;10.084;2023-03-17T10:01:32;5.30;;;4.80;;
21681;SDS011;11002;48.256;10.084;2023-03-17T10:04:00;6.38;;;5.07;;
21681;SDS011;11002;48.256;10.084;2023-03-17T10:06:30;5.35;;;4.88;;
21681;SDS011;11002;48.256;10.084;2023-03-17T10:09:05;7.15;;;5.30;;
21681;SDS011;11002;48.256;10.084;2023-03-17T10:11:38;5.40;;;4.95;;
21681;SDS011;11002;48.256;10.084;2023-03-17T10:14:11;6.40;;;4.47;;
21681;SDS011;11002;48.256;10.084;2023-03-17T10:16:50;4.75;;;4.32;;
21681;SDS011;11002;48.256;10.084;2023-03-17T10:19:25;5.82;;;4.40;;
21681;SDS011;11002;48.256;10.084;2023-03-17T10:21:55;6.40;;;5.03;;
21681;SDS011;11002;48.256;10.084;2023-03-17T10:24:27;5.05;;;4.55;;
21681;SDS011;11002;48.256;10.084;2023-03-17T10:26:58;4.22;;;3.88;;
21681;SDS011;11002;48.256;10.084;2023-03-17T10:29:29;6.95;;;4.10;;
21681;SDS011;11002;48.256;10.084;2023-03-17T10:31:58;5.35;;;4.50;;
21681;SDS011;11002;48.256;10.084;2023-03-17T10:34:26;5.10;;;4.38;;
21681;SDS011;11002;48.256;10.084;2023-03-17T10:36:59;5.90;;;3.65;;
21681;SDS011;11002;48.256;10.084;2023-03-17T10:39:29;4.47;;;4.07;;
21681;SDS011;11002;48.256;10.084;2023-03-17T10:41:58;4.53;;;4.00;;
21681;SDS011;11002;48.256;10.084;2023-03-17T10:44:40;4.15;;;3.72;;
21681;SDS011;11002;48.256;10.084;2023-03-17T10:47:23;5.63;;;4.25;;
21681;SDS011;11002;48.256;10.084;2023-03-17T10:49:55;5.07;;;4.07;;
21681;SDS011;11002;48.256;10.084;2023-03-17T10:52:25;5.45;;;3.42;;
21681;SDS011;11002;48.256;10.084;2023-03-17T10:54:54;4.60;;;3.60;;
21681;SDS011;11002;48.256;10.084;2023-03-17T10:57:28;4.37;;;3.33;;
21681;SDS011;11002;48.256;10.084;2023-03-17T10:59:55;4.53;;;3.75;;
21681;SDS011;11002;48.256;10.084;2023-03-17T11:02:27;4.55;;;3.50;;
21681;SDS011;11002;48.256;10.084;2023-03-17T11:04:59;6.22;;;3.47;;
21681;SDS011;11002;48.256;10.084;2023-03-17T11:07:33;4.13;;;3.72;;
21681;SDS011;11002;48.256;10.084;2023-03-17T11:10:03;4.80;;;3.28;;
21681;SDS011;11002;48.256;10.084;2023-03-17T11:12:40;3.13;;;2.92;;
21681;SDS011;11002;48.256;10.084;2023-03-17T11:15:09;5.03;;;3.05;;
21681;SDS011;11002;48.256;10.084;2023-03-17T11:17:44;5.03;;;3.63;;
21681;SDS011;11002;48.256;10.084;2023-03-17T11:20:23;6.38;;;3.60;;
21681;SDS011;11002;48.256;10.084;2023-03-17T11:23:00;4.13;;;3.38;;
21681;SDS011;11002;48.256;10.084;2023-03-17T11:25:31;5.30;;;3.63;;
21681;SDS011;11002;48.256;10.084;2023-03-17T11:28:10;6.95;;;3.78;;
21681;SDS011;11002;48.256;10.084;2023-03-17T11:30:46;5.78;;;3.92;;
21681;SDS011;11002;48.256;10.084;2023-03-17T11:33:27;4.78;;;4.25;;
21681;SDS011;11002;48.256;10.084;2023-03-17T11:36:02;9.48;;;4.32;;
21681;SDS011;11002;48.256;10.084;2023-03-17T11:38:42;4.18;;;3.78;;
21681;SDS011;11002;48.256;10.084;2023-03-17T11:41:32;6.65;;;4.60;;
21681;SDS011;11002;48.256;10.084;2023-03-17T11:44:14;6.53;;;4.45;;
21681;SDS011;11002;48.256;10.084;2023-03-17T11:46:55;5.38;;;4.43;;
21681;SDS011;11002;48.256;10.084;2023-03-17T11:49:33;7.15;;;4.63;;
21681;SDS011;11002;48.256;10.084;2023-03-17T11:52:04;7.65;;;4.55;;
21681;SDS011;11002;48.256;10.084;2023-03-17T11:54:39;5.33;;;4.23;;
21681;SDS011;11002;48.256;10.084;2023-03-17T11:57:16;8.95;;;4.28;;
21681;SDS011;11002;48.256;10.084;2023-03-17T11:59:49;6.55;;;4.47;;
21681;SDS011;11002;48.256;10.084;2023-03-17T12:02:21;5.60;;;3.80;;
21681;SDS011;11002;48.256;10.084;2023-03-17T12:04:56;7.40;;;4.07;;
21681;SDS011;11002;48.256;10.084;2023-03-17T12:07:27;6.60;;;4.35;;
21681;SDS011;11002;48.256;10.084;2023-03-17T12:10:03;4.68;;;4.13;;
21681;SDS011;11002;48.256;10.084;2023-03-17T12:12:41;6.43;;;4.28;;
21681;SDS011;11002;48.256;10.084;2023-03-17T12:15:14;5.85;;;4.47;;
21681;SDS011;11002;48.256;10.084;2023-03-17T12:17:50;6.10;;;4.22;;
21681;SDS011;11002;48.256;10.084;2023-03-17T12:20:25;6.38;;;4.20;;
21681;SDS011;11002;48.256;10.084;2023-03-17T12:22:58;5.18;;;3.72;;
21681;SDS011;11002;48.256;10.084;2023-03-17T12:25:31;7.28;;;4.35;;
21681;SDS011;11002;48.256;10.084;2023-03-17T12:28:04;7.68;;;4.32;;
21681;SDS011;11002;48.256;10.084;2023-03-17T12:30:37;5.82;;;3.95;;
21681;SDS011;11002;48.256;10.084;2023-03-17T12:33:15;6.43;;;4.50;;
21681;SDS011;11002;48.256;10.084;2023-03-17T12:35:49;9.15;;;4.55;;
21681;SDS011;11002;48.256;10.084;2023-03-17T12:38:17;9.52;;;4.88;;
21681;SDS011;11002;48.256;10.084;2023-03-17T12:43:47;6.35;;;4.50;;
21681;SDS011;11002;48.256;10.084;2023-03-17T12:46:31;6.63;;;4.75;;
21681;SDS011;11002;48.256;10.084;2023-03-17T12:49:21;5.43;;;4.25;;
21681;SDS011;11002;48.256;10.084;2023-03-17T12:52:06;6.72;;;4.07;;
21681;SDS011;11002;48.256;10.084;2023-03-17T12:54:43;7.60;;;4.82;;
21681;SDS011;11002;48.256;10.084;2023-03-17T12:57:17;6.15;;;4.00;;
21681;SDS011;11002;48.256;10.084;2023-03-17T12:59:47;5.05;;;4.30;;
21681;SDS011;11002;48.256;10.084;2023-03-17T13:02:22;4.90;;;4.40;;
21681;SDS011;11002;48.256;10.084;2023-03-17T13:05:00;5.57;;;4.20;;
21681;SDS011;11002;48.256;10.084;2023-03-17T13:07:36;6.90;;;4.27;;
21681;SDS011;11002;48.256;10.084;2023-03-17T13:10:12;7.35;;;4.28;;
21681;SDS011;11002;48.256;10.084;2023-03-17T13:12:56;8.43;;;4.00;;
21681;SDS011;11002;48.256;10.084;2023-03-17T13:15:51;5.45;;;4.15;;
21681;SDS011;11002;48.256;10.084;2023-03-17T13:21:32;4.88;;;4.32;;
21681;SDS011;11002;48.256;10.084;2023-03-17T13:24:20;5.68;;;4.10;;
21681;SDS011;11002;48.256;10.084;2023-03-17T13:27:00;5.97;;;4.72;;
21681;SDS011;11002;48.256;10.084;2023-03-17T13:29:39;10.38;;;4.63;;
21681;SDS011;11002;48.256;10.084;2023-03-17T13:35:11;7.07;;;4.32;;
21681;SDS011;11002;48.256;10.084;2023-03-17T13:40:18;5.72;;;4.50;;
21681;SDS011;11002;48.256;10.084;2023-03-17T13:42:59;10.63;;;4.65;;
21681;SDS011;11002;48.256;10.084;2023-03-17T13:45:36;6.10;;;4.37;;
21681;SDS011;11002;48.256;10.084;2023-03-17T13:48:22;7.00;;;4.68;;
21681;SDS011;11002;48.256;10.084;2023-03-17T13:50:55;8.10;;;4.93;;
21681;SDS011;11002;48.256;10.084;2023-03-17T13:53:26;5.88;;;4.40;;
21681;SDS011;11002;48.256;10.084;2023-03-17T13:56:09;7.38;;;5.13;;
21681;SDS011;11002;48.256;10.084;2023-03-17T13:58:54;5.15;;;4.65;;
21681;SDS011;11002;48.256;10.084;2023-03-17T14:04:11;5.32;;;4.72;;
21681;SDS011;11002;48.256;10.084;2023-03-17T14:06:46;7.07;;;4.57;;
21681;SDS011;11002;48.256;10.084;2023-03-17T14:09:20;7.25;;;4.63;;
21681;SDS011;11002;48.256;10.084;2023-03-17T14:11:58;5.57;;;4.43;;
21681;SDS011;11002;48.256;10.084;2023-03-17T14:14:32;5.32;;;3.90;;
21681;SDS011;11002;48.256;10.084;2023-03-17T14:17:07;7.05;;;3.92;;
21681;SDS011;11002;48.256;10.084;2023-03-17T14:19:39;7.65;;;3.90;;
21681;SDS011;11002;48.256;10.084;2023-03-17T14:22:20;6.63;;;4.60;;
21681;SDS011;11002;48.256;10.084;2023-03-17T14:24:50;5.70;;;4.00;;
21681;SDS011;11002;48.256;10.084;2023-03-17T14:27:20;5.72;;;4.50;;
21681;SDS011;11002;48.256;10.084;2023-03-17T14:29:49;5.22;;;3.83;;
21681;SDS011;11002;48.256;10.084;2023-03-17T14:32:20;5.82;;;3.95;;
21681;SDS011;11002;48.256;10.084;2023-03-17T14:34:52;4.43;;;3.95;;
21681;SDS011;11002;48.256;10.084;2023-03-17T14:37:21;4.63;;;3.85;;
21681;SDS011;11002;48.256;10.084;2023-03-17T14:39:50;5.00;;;4.10;;
21681;SDS011;11002;48.256;10.084;2023-03-17T14:42:24;4.22;;;3.13;;
21681;SDS011;11002;48.256;10.084;2023-03-17T14:44:58;6.32;;;4.10;;
21681;SDS011;11002;48.256;10.084;2023-03-17T14:47:27;5.55;;;4.18;;
21681;SDS011;11002;48.256;10.084;2023-03-17T14:49:57;5.25;;;4.13;;
21681;SDS011;11002;48.256;10.084;2023-03-17T14:52:27;5.10;;;4.07;;
21681;SDS011;11002;48.256;10.084;2023-03-17T14:55:00;5.35;;;3.58;;
21681;SDS011;11002;48.256;10.084;2023-03-17T14:57:30;8.90;;;3.60;;
21681;SDS011;11002;48.256;10.084;2023-03-17T14:59:59;5.05;;;4.20;;
21681;SDS011;11002;48.256;10.084;2023-03-17T15:02:31;7.32;;;4.15;;
21681;SDS011;11002;48.256;10.084;2023-03-17T15:05:01;4.80;;;3.92;;